sensor_id;sensor_type;location;lat;lon;timestamp;temperature;humidity
21807;DHT22;11065;50.786;7.840;2022-09-16T00:01:52;16.20;51.80
21807;DHT22;11065;50.786;7.840;2022-09-16T00:04:19;16.20;51.40
21807;DHT22;11065;50.786;7.840;2022-09-16T00:06:46;16.20;51.50
21807;DHT22;11065;50.786;7.840;2022-09-16T00:09:13;16.20;51.60
21807;DHT22;11065;50.786;7.840;2022-09-16T00:11:39;16.20;51.60
21807;DHT22;11065;50.786;7.840;2022-09-16T00:14:06;16.20;51.60
21807;DHT22;11065;50.786;7.840;2022-09-16T00:16:33;16.20;51.60
21807;DHT22;11065;50.786;7.840;2022-09-16T00:19:00;16.20;51.60
21807;DHT22;11065;50.786;7.840;2022-09-16T00:21:29;16.20;51.60
21807;DHT22;11065;50.786;7.840;2022-09-16T00:23:56;16.10;51.50
21807;DHT22;11065;50.786;7.840;2022-09-16T00:26:23;16.10;51.40
21807;DHT22;11065;50.786;7.840;2022-09-16T00:28:51;16.10;51.50
21807;DHT22;11065;50.786;7.840;2022-09-16T00:31:18;16.10;51.50
21807;DHT22;11065;50.786;7.840;2022-09-16T00:33:45;16.00;51.50
21807;DHT22;11065;50.786;7.840;2022-09-16T00:36:15;16.00;51.50
21807;DHT22;11065;50.786;7.840;2022-09-16T00:38:44;16.00;51.60
21807;DHT22;11065;50.786;7.840;2022-09-16T00:41:15;15.90;51.60
21807;DHT22;11065;50.786;7.840;2022-09-16T00:43:52;15.90;51.70
21807;DHT22;11065;50.786;7.840;2022-09-16T00:46:24;15.90;51.80
21807;DHT22;11065;50.786;7.840;2022-09-16T00:48:52;15.90;51.80
21807;DHT22;11065;50.786;7.840;2022-09-16T00:51:20;15.80;51.70
21807;DHT22;11065;50.786;7.840;2022-09-16T00:53:52;15.80;51.80
21807;DHT22;11065;50.786;7.840;2022-09-16T00:56:24;15.80;51.90
21807;DHT22;11065;50.786;7.840;2022-09-16T01:01:30;15.70;52.10
21807;DHT22;11065;50.786;7.840;2022-09-16T01:04:13;15.70;52.00
21807;DHT22;11065;50.786;7.840;2022-09-16T01:06:40;15.70;52.30
21807;DHT22;11065;50.786;7.840;2022-09-16T01:09:07;15.70;52.10
21807;DHT22;11065;50.786;7.840;2022-09-16T01:11:34;15.60;52.20
21807;DHT22;11065;50.786;7.840;2022-09-16T01:14:01;15.60;52.30
21807;DHT22;11065;50.786;7.840;2022-09-16T01:16:54;15.60;52.40
21807;DHT22;11065;50.786;7.840;2022-09-16T01:33:10;15.30;53.00
21807;DHT22;11065;50.786;7.840;2022-09-16T01:41:20;15.30;52.80
21807;DHT22;11065;50.786;7.840;2022-09-16T01:44:00;15.20;53.60
21807;DHT22;11065;50.786;7.840;2022-09-16T01:46:46;15.20;53.20
21807;DHT22;11065;50.786;7.840;2022-09-16T01:49:25;15.10;53.50
21807;DHT22;11065;50.786;7.840;2022-09-16T01:54:52;15.10;53.20
21807;DHT22;11065;50.786;7.840;2022-09-16T01:57:49;15.10;53.40
21807;DHT22;11065;50.786;7.840;2022-09-16T02:00:13;15.00;53.30
21807;DHT22;11065;50.786;7.840;2022-09-16T02:02:48;15.00;53.30
21807;DHT22;11065;50.786;7.840;2022-09-16T02:05:26;15.00;53.50
21807;DHT22;11065;50.786;7.840;2022-09-16T02:08:00;15.00;53.50
21807;DHT22;11065;50.786;7.840;2022-09-16T02:10:32;15.00;53.50
21807;DHT22;11065;50.786;7.840;2022-09-16T02:13:56;15.00;53.50
21807;DHT22;11065;50.786;7.840;2022-09-16T02:16:09;15.00;53.80
21807;DHT22;11065;50.786;7.840;2022-09-16T02:18:40;15.00;53.60
21807;DHT22;11065;50.786;7.840;2022-09-16T02:21:11;15.00;53.50
21807;DHT22;11065;50.786;7.840;2022-09-16T02:23:47;15.00;53.50
21807;DHT22;11065;50.786;7.840;2022-09-16T02:26:20;15.00;53.70
21807;DHT22;11065;50.786;7.840;2022-09-16T02:28:52;14.90;53.90
21807;DHT22;11065;50.786;7.840;2022-09-16T02:31:25;15.00;53.80
21807;DHT22;11065;50.786;7.840;2022-09-16T02:34:00;14.90;54.20
21807;DHT22;11065;50.786;7.840;2022-09-16T02:36:30;14.90;54.50
21807;DHT22;11065;50.786;7.840;2022-09-16T02:39:07;14.90;54.20
21807;DHT22;11065;50.786;7.840;2022-09-16T02:41:39;14.80;54.20
21807;DHT22;11065;50.786;7.840;2022-09-16T02:44:07;14.80;54.00
21807;DHT22;11065;50.786;7.840;2022-09-16T02:46:50;14.80;54.00
21807;DHT22;11065;50.786;7.840;2022-09-16T02:57:41;14.70;54.40
21807;DHT22;11065;50.786;7.840;2022-09-16T03:00:08;14.70;54.20
21807;DHT22;11065;50.786;7.840;2022-09-16T03:02:35;14.70;54.20
21807;DHT22;11065;50.786;7.840;2022-09-16T03:05:03;14.70;54.40
21807;DHT22;11065;50.786;7.840;2022-09-16T03:07:30;14.70;54.30
21807;DHT22;11065;50.786;7.840;2022-09-16T03:09:57;14.70;54.30
21807;DHT22;11065;50.786;7.840;2022-09-16T03:15:25;14.70;54.50
21807;DHT22;11065;50.786;7.840;2022-09-16T03:23:41;14.70;54.40
21807;DHT22;11065;50.786;7.840;2022-09-16T03:29:27;14.70;54.40
21807;DHT22;11065;50.786;7.840;2022-09-16T03:34:42;14.60;54.60
21807;DHT22;11065;50.786;7.840;2022-09-16T03:37:13;14.60;54.60
21807;DHT22;11065;50.786;7.840;2022-09-16T03:39:41;14.70;54.60
21807;DHT22;11065;50.786;7.840;2022-09-16T03:42:09;14.60;54.50
21807;DHT22;11065;50.786;7.840;2022-09-16T03:44:38;14.70;54.60
21807;DHT22;11065;50.786;7.840;2022-09-16T03:47:06;14.70;54.60
21807;DHT22;11065;50.786;7.840;2022-09-16T03:49:34;14.70;54.60
21807;DHT22;11065;50.786;7.840;2022-09-16T03:52:01;14.70;54.60
21807;DHT22;11065;50.786;7.840;2022-09-16T03:54:30;14.70;54.60
21807;DHT22;11065;50.786;7.840;2022-09-16T03:56:57;14.60;54.60
21807;DHT22;11065;50.786;7.840;2022-09-16T03:59:24;14.60;54.70
21807;DHT22;11065;50.786;7.840;2022-09-16T04:01:50;14.60;54.80
21807;DHT22;11065;50.786;7.840;2022-09-16T04:04:17;14.60;54.80
21807;DHT22;11065;50.786;7.840;2022-09-16T04:06:44;14.70;54.90
21807;DHT22;11065;50.786;7.840;2022-09-16T04:09:11;14.70;55.00
21807;DHT22;11065;50.786;7.840;2022-09-16T04:11:39;14.70;55.10
21807;DHT22;11065;50.786;7.840;2022-09-16T04:14:06;14.70;55.10
21807;DHT22;11065;50.786;7.840;2022-09-16T04:16:33;14.70;55.10
21807;DHT22;11065;50.786;7.840;2022-09-16T04:19:00;14.70;55.10
21807;DHT22;11065;50.786;7.840;2022-09-16T04:21:27;14.70;55.10
21807;DHT22;11065;50.786;7.840;2022-09-16T04:23:54;14.70;55.20
21807;DHT22;11065;50.786;7.840;2022-09-16T04:26:21;14.70;55.20
21807;DHT22;11065;50.786;7.840;2022-09-16T04:28:51;14.70;55.20
21807;DHT22;11065;50.786;7.840;2022-09-16T04:31:18;14.80;55.40
21807;DHT22;11065;50.786;7.840;2022-09-16T04:33:45;14.80;55.30
21807;DHT22;11065;50.786;7.840;2022-09-16T04:36:15;14.80;55.40
21807;DHT22;11065;50.786;7.840;2022-09-16T04:38:44;14.80;55.50
21807;DHT22;11065;50.786;7.840;2022-09-16T04:41:15;14.80;55.60
21807;DHT22;11065;50.786;7.840;2022-09-16T04:43:42;14.80;55.60
21807;DHT22;11065;50.786;7.840;2022-09-16T04:46:09;14.80;55.70
21807;DHT22;11065;50.786;7.840;2022-09-16T04:48:37;14.80;55.70
21807;DHT22;11065;50.786;7.840;2022-09-16T04:51:09;14.80;55.70
21807;DHT22;11065;50.786;7.840;2022-09-16T04:53:37;14.80;55.90
21807;DHT22;11065;50.786;7.840;2022-09-16T04:56:07;14.80;55.90
21807;DHT22;11065;50.786;7.840;2022-09-16T04:58:35;14.80;55.80
21807;DHT22;11065;50.786;7.840;2022-09-16T05:01:09;14.80;55.80
21807;DHT22;11065;50.786;7.840;2022-09-16T05:03:40;14.80;55.90
21807;DHT22;11065;50.786;7.840;2022-09-16T05:06:15;14.70;55.60
21807;DHT22;11065;50.786;7.840;2022-09-16T05:08:47;14.70;55.80
21807;DHT22;11065;50.786;7.840;2022-09-16T05:11:17;14.70;55.70
21807;DHT22;11065;50.786;7.840;2022-09-16T05:13:44;14.60;55.80
21807;DHT22;11065;50.786;7.840;2022-09-16T05:16:19;14.60;55.80
21807;DHT22;11065;50.786;7.840;2022-09-16T05:18:48;14.60;55.90
21807;DHT22;11065;50.786;7.840;2022-09-16T05:21:17;14.60;56.00
21807;DHT22;11065;50.786;7.840;2022-09-16T05:23:45;14.50;56.10
21807;DHT22;11065;50.786;7.840;2022-09-16T05:26:21;14.50;56.10
21807;DHT22;11065;50.786;7.840;2022-09-16T05:28:49;14.50;56.40
21807;DHT22;11065;50.786;7.840;2022-09-16T05:31:20;14.50;56.20
21807;DHT22;11065;50.786;7.840;2022-09-16T05:33:54;14.40;56.10
21807;DHT22;11065;50.786;7.840;2022-09-16T05:36:21;14.40;56.40
21807;DHT22;11065;50.786;7.840;2022-09-16T05:38:48;14.40;56.20
21807;DHT22;11065;50.786;7.840;2022-09-16T05:41:36;14.40;56.30
21807;DHT22;11065;50.786;7.840;2022-09-16T05:44:03;14.40;56.20
21807;DHT22;11065;50.786;7.840;2022-09-16T05:46:32;14.30;56.20
21807;DHT22;11065;50.786;7.840;2022-09-16T05:48:59;14.40;56.30
21807;DHT22;11065;50.786;7.840;2022-09-16T05:51:26;14.30;56.40
21807;DHT22;11065;50.786;7.840;2022-09-16T05:53:54;14.30;56.40
21807;DHT22;11065;50.786;7.840;2022-09-16T05:56:23;14.30;56.50
21807;DHT22;11065;50.786;7.840;2022-09-16T05:58:52;14.30;56.70
21807;DHT22;11065;50.786;7.840;2022-09-16T06:01:25;14.30;56.70
21807;DHT22;11065;50.786;7.840;2022-09-16T06:03:53;14.20;57.00
21807;DHT22;11065;50.786;7.840;2022-09-16T06:06:31;14.20;57.10
21807;DHT22;11065;50.786;7.840;2022-09-16T06:09:09;14.30;57.50
21807;DHT22;11065;50.786;7.840;2022-09-16T06:11:45;14.30;57.40
21807;DHT22;11065;50.786;7.840;2022-09-16T06:14:13;14.30;57.50
21807;DHT22;11065;50.786;7.840;2022-09-16T06:16:40;14.40;57.30
21807;DHT22;11065;50.786;7.840;2022-09-16T06:19:10;14.40;57.40
21807;DHT22;11065;50.786;7.840;2022-09-16T06:21:39;14.40;57.60
21807;DHT22;11065;50.786;7.840;2022-09-16T06:24:06;14.50;57.70
21807;DHT22;11065;50.786;7.840;2022-09-16T06:26:38;14.50;57.90
21807;DHT22;11065;50.786;7.840;2022-09-16T06:29:05;14.60;58.30
21807;DHT22;11065;50.786;7.840;2022-09-16T06:31:33;14.70;58.30
21807;DHT22;11065;50.786;7.840;2022-09-16T06:34:02;14.80;58.20
21807;DHT22;11065;50.786;7.840;2022-09-16T06:36:34;14.80;58.10
21807;DHT22;11065;50.786;7.840;2022-09-16T06:39:02;14.90;58.20
21807;DHT22;11065;50.786;7.840;2022-09-16T06:41:30;14.90;57.80
21807;DHT22;11065;50.786;7.840;2022-09-16T06:43:57;15.00;57.80
21807;DHT22;11065;50.786;7.840;2022-09-16T06:46:26;15.00;57.80
21807;DHT22;11065;50.786;7.840;2022-09-16T06:48:56;15.00;57.90
21807;DHT22;11065;50.786;7.840;2022-09-16T06:51:29;15.00;58.00
21807;DHT22;11065;50.786;7.840;2022-09-16T06:54:02;15.10;58.00
21807;DHT22;11065;50.786;7.840;2022-09-16T06:56:29;15.20;58.30
21807;DHT22;11065;50.786;7.840;2022-09-16T06:58:56;15.20;58.10
21807;DHT22;11065;50.786;7.840;2022-09-16T07:01:26;15.30;58.20
21807;DHT22;11065;50.786;7.840;2022-09-16T07:03:54;15.30;58.40
21807;DHT22;11065;50.786;7.840;2022-09-16T07:06:24;15.40;58.40
21807;DHT22;11065;50.786;7.840;2022-09-16T07:09:13;15.50;58.40
21807;DHT22;11065;50.786;7.840;2022-09-16T07:11:40;15.60;58.30
21807;DHT22;11065;50.786;7.840;2022-09-16T07:14:07;15.70;58.40
21807;DHT22;11065;50.786;7.840;2022-09-16T07:16:35;15.80;58.30
21807;DHT22;11065;50.786;7.840;2022-09-16T07:19:02;15.80;58.20
21807;DHT22;11065;50.786;7.840;2022-09-16T07:21:30;15.90;58.10
21807;DHT22;11065;50.786;7.840;2022-09-16T07:23:59;16.00;58.30
21807;DHT22;11065;50.786;7.840;2022-09-16T07:26:28;16.00;58.10
21807;DHT22;11065;50.786;7.840;2022-09-16T07:28:58;16.10;58.10
21807;DHT22;11065;50.786;7.840;2022-09-16T07:31:27;16.20;58.20
21807;DHT22;11065;50.786;7.840;2022-09-16T07:33:55;16.20;58.10
21807;DHT22;11065;50.786;7.840;2022-09-16T07:36:33;16.30;58.00
21807;DHT22;11065;50.786;7.840;2022-09-16T07:39:01;16.40;58.10
21807;DHT22;11065;50.786;7.840;2022-09-16T07:41:32;16.50;57.90
21807;DHT22;11065;50.786;7.840;2022-09-16T07:44:00;16.50;57.60
21807;DHT22;11065;50.786;7.840;2022-09-16T07:46:29;16.60;57.50
21807;DHT22;11065;50.786;7.840;2022-09-16T07:48:57;16.70;57.40
21807;DHT22;11065;50.786;7.840;2022-09-16T07:51:25;16.80;57.20
21807;DHT22;11065;50.786;7.840;2022-09-16T07:53:57;16.80;56.80
21807;DHT22;11065;50.786;7.840;2022-09-16T07:56:26;16.80;56.40
21807;DHT22;11065;50.786;7.840;2022-09-16T07:58:55;16.80;56.30
21807;DHT22;11065;50.786;7.840;2022-09-16T08:01:23;16.80;56.30
21807;DHT22;11065;50.786;7.840;2022-09-16T08:03:51;16.80;56.20
21807;DHT22;11065;50.786;7.840;2022-09-16T08:06:30;16.70;56.10
21807;DHT22;11065;50.786;7.840;2022-09-16T08:08:58;16.70;56.00
21807;DHT22;11065;50.786;7.840;2022-09-16T08:11:45;16.70;56.10
21807;DHT22;11065;50.786;7.840;2022-09-16T08:14:12;16.70;56.30
21807;DHT22;11065;50.786;7.840;2022-09-16T08:16:39;16.70;56.50
21807;DHT22;11065;50.786;7.840;2022-09-16T08:19:05;16.80;56.70
21807;DHT22;11065;50.786;7.840;2022-09-16T08:21:32;16.90;56.90
21807;DHT22;11065;50.786;7.840;2022-09-16T08:23:59;17.00;57.10
21807;DHT22;11065;50.786;7.840;2022-09-16T08:26:26;17.20;57.30
21807;DHT22;11065;50.786;7.840;2022-09-16T08:28:52;17.40;57.30
21807;DHT22;11065;50.786;7.840;2022-09-16T08:31:37;17.60;57.10
21807;DHT22;11065;50.786;7.840;2022-09-16T08:34:04;17.80;57.20
21807;DHT22;11065;50.786;7.840;2022-09-16T08:36:31;18.00;56.80
21807;DHT22;11065;50.786;7.840;2022-09-16T08:39:01;18.20;56.20
21807;DHT22;11065;50.786;7.840;2022-09-16T08:46:52;18.30;54.40
21807;DHT22;11065;50.786;7.840;2022-09-16T08:49:38;18.30;54.40
21807;DHT22;11065;50.786;7.840;2022-09-16T08:52:28;18.20;54.50
21807;DHT22;11065;50.786;7.840;2022-09-16T08:55:09;18.20;54.40
21807;DHT22;11065;50.786;7.840;2022-09-16T08:57:40;18.20;54.60
21807;DHT22;11065;50.786;7.840;2022-09-16T09:00:14;18.40;57.00
21807;DHT22;11065;50.786;7.840;2022-09-16T09:08:33;20.80;59.40
21807;DHT22;11065;50.786;7.840;2022-09-16T09:16:24;23.10;57.10
21807;DHT22;11065;50.786;7.840;2022-09-16T09:21:53;25.10;58.30
21807;DHT22;11065;50.786;7.840;2022-09-16T09:24:32;26.30;54.00
21807;DHT22;11065;50.786;7.840;2022-09-16T09:27:15;27.10;51.60
21807;DHT22;11065;50.786;7.840;2022-09-16T09:30:08;27.40;48.50
21807;DHT22;11065;50.786;7.840;2022-09-16T09:40:58;26.60;47.60
21807;DHT22;11065;50.786;7.840;2022-09-16T09:44:30;27.00;49.30
21807;DHT22;11065;50.786;7.840;2022-09-16T09:46:47;27.40;45.80
21807;DHT22;11065;50.786;7.840;2022-09-16T09:49:49;27.60;46.10
21807;DHT22;11065;50.786;7.840;2022-09-16T09:52:25;27.70;44.50
21807;DHT22;11065;50.786;7.840;2022-09-16T09:54:54;27.50;44.70
21807;DHT22;11065;50.786;7.840;2022-09-16T09:57:29;27.40;44.40
21807;DHT22;11065;50.786;7.840;2022-09-16T10:00:04;27.50;45.00
21807;DHT22;11065;50.786;7.840;2022-09-16T10:02:40;27.70;45.10
21807;DHT22;11065;50.786;7.840;2022-09-16T10:05:27;27.80;44.40
21807;DHT22;11065;50.786;7.840;2022-09-16T10:07:57;27.70;42.30
21807;DHT22;11065;50.786;7.840;2022-09-16T10:10:27;27.40;42.00
21807;DHT22;11065;50.786;7.840;2022-09-16T10:13:06;27.20;42.10
21807;DHT22;11065;50.786;7.840;2022-09-16T10:15:33;26.80;40.50
21807;DHT22;11065;50.786;7.840;2022-09-16T10:18:00;26.40;40.20
21807;DHT22;11065;50.786;7.840;2022-09-16T10:20:37;25.90;40.70
21807;DHT22;11065;50.786;7.840;2022-09-16T10:23:10;25.40;40.70
21807;DHT22;11065;50.786;7.840;2022-09-16T10:25:37;25.00;40.90
21807;DHT22;11065;50.786;7.840;2022-09-16T10:28:23;24.60;41.60
21807;DHT22;11065;50.786;7.840;2022-09-16T10:30:52;24.40;41.90
21807;DHT22;11065;50.786;7.840;2022-09-16T10:33:23;24.40;43.40
21807;DHT22;11065;50.786;7.840;2022-09-16T10:35:57;24.50;43.90
21807;DHT22;11065;50.786;7.840;2022-09-16T10:38:37;24.70;43.20
21807;DHT22;11065;50.786;7.840;2022-09-16T10:41:15;24.90;42.40
21807;DHT22;11065;50.786;7.840;2022-09-16T10:43:57;25.10;42.60
21807;DHT22;11065;50.786;7.840;2022-09-16T10:46:25;25.60;43.50
21807;DHT22;11065;50.786;7.840;2022-09-16T10:48:59;26.00;44.50
21807;DHT22;11065;50.786;7.840;2022-09-16T10:51:30;26.40;43.40
21807;DHT22;11065;50.786;7.840;2022-09-16T10:54:01;26.80;42.60
21807;DHT22;11065;50.786;7.840;2022-09-16T10:56:31;27.00;42.10
21807;DHT22;11065;50.786;7.840;2022-09-16T10:59:04;27.20;41.50
21807;DHT22;11065;50.786;7.840;2022-09-16T11:18:13;28.60;39.70
21807;DHT22;11065;50.786;7.840;2022-09-16T11:21:02;28.60;39.00
21807;DHT22;11065;50.786;7.840;2022-09-16T11:26:22;27.90;37.30
21807;DHT22;11065;50.786;7.840;2022-09-16T11:29:18;27.40;36.80
21807;DHT22;11065;50.786;7.840;2022-09-16T11:34:56;26.10;37.20
21807;DHT22;11065;50.786;7.840;2022-09-16T11:45:49;25.30;40.60
21807;DHT22;11065;50.786;7.840;2022-09-16T11:51:06;26.40;41.20
21807;DHT22;11065;50.786;7.840;2022-09-16T11:59:22;26.60;38.40
21807;DHT22;11065;50.786;7.840;2022-09-16T12:04:56;26.10;37.70
21807;DHT22;11065;50.786;7.840;2022-09-16T12:07:30;26.00;38.60
21807;DHT22;11065;50.786;7.840;2022-09-16T12:10:18;26.00;39.10
21807;DHT22;11065;50.786;7.840;2022-09-16T12:13:05;26.20;39.20
21807;DHT22;11065;50.786;7.840;2022-09-16T12:15:38;26.50;39.50
21807;DHT22;11065;50.786;7.840;2022-09-16T12:23:56;27.80;39.10
21807;DHT22;11065;50.786;7.840;2022-09-16T12:26:31;28.10;38.70
21807;DHT22;11065;50.786;7.840;2022-09-16T12:32:03;28.30;37.20
21807;DHT22;11065;50.786;7.840;2022-09-16T12:34:43;28.20;36.60
21807;DHT22;11065;50.786;7.840;2022-09-16T12:39:48;27.60;36.10
21807;DHT22;11065;50.786;7.840;2022-09-16T12:42:46;27.20;36.10
21807;DHT22;11065;50.786;7.840;2022-09-16T12:48:33;26.10;36.10
21807;DHT22;11065;50.786;7.840;2022-09-16T12:54:54;25.00;36.70
21807;DHT22;11065;50.786;7.840;2022-09-16T13:00:22;24.00;37.50
21807;DHT22;11065;50.786;7.840;2022-09-16T13:02:59;23.50;37.50
21807;DHT22;11065;50.786;7.840;2022-09-16T13:05:34;23.20;38.10
21807;DHT22;11065;50.786;7.840;2022-09-16T13:08:26;22.90;38.40
21807;DHT22;11065;50.786;7.840;2022-09-16T13:11:06;22.70;38.60
21807;DHT22;11065;50.786;7.840;2022-09-16T13:13:57;22.50;38.90
21807;DHT22;11065;50.786;7.840;2022-09-16T13:27:28;22.30;39.50
21807;DHT22;11065;50.786;7.840;2022-09-16T13:30:24;22.20;39.20
21807;DHT22;11065;50.786;7.840;2022-09-16T13:37:51;21.70;39.40
21807;DHT22;11065;50.786;7.840;2022-09-16T13:40:24;21.60;39.60
21807;DHT22;11065;50.786;7.840;2022-09-16T13:45:35;21.20;39.90
21807;DHT22;11065;50.786;7.840;2022-09-16T13:48:20;21.10;40.00
21807;DHT22;11065;50.786;7.840;2022-09-16T13:50:58;20.90;40.50
21807;DHT22;11065;50.786;7.840;2022-09-16T13:53:27;20.50;40.60
21807;DHT22;11065;50.786;7.840;2022-09-16T13:58:58;20.00;40.90
21807;DHT22;11065;50.786;7.840;2022-09-16T14:02:00;19.70;41.50
21807;DHT22;11065;50.786;7.840;2022-09-16T14:07:36;19.00;41.90
21807;DHT22;11065;50.786;7.840;2022-09-16T14:10:30;18.80;42.20
21807;DHT22;11065;50.786;7.840;2022-09-16T14:13:12;18.50;42.80
21807;DHT22;11065;50.786;7.840;2022-09-16T14:15:49;18.30;43.00
21807;DHT22;11065;50.786;7.840;2022-09-16T14:18:20;18.10;43.50
21807;DHT22;11065;50.786;7.840;2022-09-16T14:23:27;17.80;43.90
21807;DHT22;11065;50.786;7.840;2022-09-16T14:25:54;17.80;43.80
21807;DHT22;11065;50.786;7.840;2022-09-16T14:28:26;17.90;44.40
21807;DHT22;11065;50.786;7.840;2022-09-16T14:30:59;18.10;45.30
21807;DHT22;11065;50.786;7.840;2022-09-16T14:33:36;18.30;45.60
21807;DHT22;11065;50.786;7.840;2022-09-16T14:38:58;19.00;45.50
21807;DHT22;11065;50.786;7.840;2022-09-16T14:41:49;19.30;44.90
21807;DHT22;11065;50.786;7.840;2022-09-16T14:49:30;19.50;43.80
21807;DHT22;11065;50.786;7.840;2022-09-16T14:52:00;19.40;43.40
21807;DHT22;11065;50.786;7.840;2022-09-16T14:54:30;19.30;43.30
21807;DHT22;11065;50.786;7.840;2022-09-16T14:57:04;19.10;43.30
21807;DHT22;11065;50.786;7.840;2022-09-16T14:59:35;19.00;43.90
21807;DHT22;11065;50.786;7.840;2022-09-16T15:04:45;18.80;44.20
21807;DHT22;11065;50.786;7.840;2022-09-16T15:07:23;18.70;44.10
21807;DHT22;11065;50.786;7.840;2022-09-16T15:09:59;18.60;44.50
21807;DHT22;11065;50.786;7.840;2022-09-16T15:12:32;18.50;44.70
21807;DHT22;11065;50.786;7.840;2022-09-16T15:15:04;18.50;44.80
21807;DHT22;11065;50.786;7.840;2022-09-16T15:17:31;18.50;45.10
21807;DHT22;11065;50.786;7.840;2022-09-16T15:19:59;18.40;45.00
21807;DHT22;11065;50.786;7.840;2022-09-16T15:22:26;18.40;45.20
21807;DHT22;11065;50.786;7.840;2022-09-16T15:24:55;18.40;45.20
21807;DHT22;11065;50.786;7.840;2022-09-16T15:27:27;18.30;45.20
21807;DHT22;11065;50.786;7.840;2022-09-16T15:29:58;18.30;45.30
21807;DHT22;11065;50.786;7.840;2022-09-16T15:32:28;18.20;45.50
21807;DHT22;11065;50.786;7.840;2022-09-16T15:35:29;18.20;45.60
21807;DHT22;11065;50.786;7.840;2022-09-16T15:38:10;18.10;46.50
21807;DHT22;11065;50.786;7.840;2022-09-16T15:40:40;18.20;46.30
21807;DHT22;11065;50.786;7.840;2022-09-16T15:43:23;18.20;45.90
21807;DHT22;11065;50.786;7.840;2022-09-16T15:46:01;18.20;46.20
21807;DHT22;11065;50.786;7.840;2022-09-16T15:48:32;18.20;46.10
21807;DHT22;11065;50.786;7.840;2022-09-16T15:51:17;18.20;45.70
21807;DHT22;11065;50.786;7.840;2022-09-16T15:53:46;18.10;45.80
21807;DHT22;11065;50.786;7.840;2022-09-16T15:56:29;18.10;45.50
21807;DHT22;11065;50.786;7.840;2022-09-16T15:59:04;18.00;45.90
21807;DHT22;11065;50.786;7.840;2022-09-16T16:01:52;17.90;45.80
21807;DHT22;11065;50.786;7.840;2022-09-16T16:04:27;17.80;46.30
21807;DHT22;11065;50.786;7.840;2022-09-16T16:07:00;17.80;46.10
21807;DHT22;11065;50.786;7.840;2022-09-16T16:11:59;17.70;46.00
21807;DHT22;11065;50.786;7.840;2022-09-16T16:14:28;17.70;46.40
21807;DHT22;11065;50.786;7.840;2022-09-16T16:17:03;17.70;46.60
21807;DHT22;11065;50.786;7.840;2022-09-16T16:19:45;17.70;46.50
21807;DHT22;11065;50.786;7.840;2022-09-16T16:22:13;17.80;46.50
21807;DHT22;11065;50.786;7.840;2022-09-16T16:24:40;17.80;46.40
21807;DHT22;11065;50.786;7.840;2022-09-16T16:27:07;17.90;46.20
21807;DHT22;11065;50.786;7.840;2022-09-16T16:29:34;17.80;46.00
21807;DHT22;11065;50.786;7.840;2022-09-16T16:32:05;17.80;45.80
21807;DHT22;11065;50.786;7.840;2022-09-16T16:34:35;17.70;45.90
21807;DHT22;11065;50.786;7.840;2022-09-16T16:37:02;17.70;46.10
21807;DHT22;11065;50.786;7.840;2022-09-16T16:39:30;17.70;46.00
21807;DHT22;11065;50.786;7.840;2022-09-16T16:41:56;17.60;46.00
21807;DHT22;11065;50.786;7.840;2022-09-16T16:44:24;17.60;46.20
21807;DHT22;11065;50.786;7.840;2022-09-16T16:46:52;17.50;46.30
21807;DHT22;11065;50.786;7.840;2022-09-16T16:49:20;17.50;46.30
21807;DHT22;11065;50.786;7.840;2022-09-16T16:51:48;17.40;46.30
21807;DHT22;11065;50.786;7.840;2022-09-16T16:54:17;17.40;46.30
21807;DHT22;11065;50.786;7.840;2022-09-16T16:56:44;17.30;46.40
21807;DHT22;11065;50.786;7.840;2022-09-16T16:59:11;17.20;46.50
21807;DHT22;11065;50.786;7.840;2022-09-16T17:01:38;17.20;46.60
21807;DHT22;11065;50.786;7.840;2022-09-16T17:04:05;17.10;46.70
21807;DHT22;11065;50.786;7.840;2022-09-16T17:06:33;17.00;46.70
21807;DHT22;11065;50.786;7.840;2022-09-16T17:09:05;16.90;46.80
21807;DHT22;11065;50.786;7.840;2022-09-16T17:11:32;16.80;46.90
21807;DHT22;11065;50.786;7.840;2022-09-16T17:14:02;16.80;47.00
21807;DHT22;11065;50.786;7.840;2022-09-16T17:16:29;16.70;47.10
21807;DHT22;11065;50.786;7.840;2022-09-16T17:19:00;16.60;47.20
21807;DHT22;11065;50.786;7.840;2022-09-16T17:21:30;16.50;47.60
21807;DHT22;11065;50.786;7.840;2022-09-16T17:23:57;16.50;47.70
21807;DHT22;11065;50.786;7.840;2022-09-16T17:26:25;16.50;47.80
21807;DHT22;11065;50.786;7.840;2022-09-16T17:28:53;16.40;47.90
21807;DHT22;11065;50.786;7.840;2022-09-16T17:31:30;16.40;48.60
21807;DHT22;11065;50.786;7.840;2022-09-16T17:34:00;16.40;48.40
21807;DHT22;11065;50.786;7.840;2022-09-16T17:36:29;16.40;48.30
21807;DHT22;11065;50.786;7.840;2022-09-16T17:39:01;16.30;48.00
21807;DHT22;11065;50.786;7.840;2022-09-16T17:41:29;16.30;47.90
21807;DHT22;11065;50.786;7.840;2022-09-16T17:43:58;16.20;47.80
21807;DHT22;11065;50.786;7.840;2022-09-16T17:46:25;16.20;47.70
21807;DHT22;11065;50.786;7.840;2022-09-16T17:49:04;16.10;47.60
21807;DHT22;11065;50.786;7.840;2022-09-16T17:51:32;16.00;47.90
21807;DHT22;11065;50.786;7.840;2022-09-16T17:53:59;15.90;47.70
21807;DHT22;11065;50.786;7.840;2022-09-16T17:56:26;15.90;48.00
21807;DHT22;11065;50.786;7.840;2022-09-16T17:58:53;15.80;47.70
21807;DHT22;11065;50.786;7.840;2022-09-16T18:01:22;15.70;47.70
21807;DHT22;11065;50.786;7.840;2022-09-16T18:03:52;15.60;47.80
21807;DHT22;11065;50.786;7.840;2022-09-16T18:06:22;15.60;47.90
21807;DHT22;11065;50.786;7.840;2022-09-16T18:08:50;15.50;47.90
21807;DHT22;11065;50.786;7.840;2022-09-16T18:11:17;15.40;47.90
21807;DHT22;11065;50.786;7.840;2022-09-16T18:13:47;15.40;48.00
21807;DHT22;11065;50.786;7.840;2022-09-16T18:16:17;15.30;48.00
21807;DHT22;11065;50.786;7.840;2022-09-16T18:18:45;15.20;48.10
21807;DHT22;11065;50.786;7.840;2022-09-16T18:21:13;15.20;48.20
21807;DHT22;11065;50.786;7.840;2022-09-16T18:23:41;15.10;48.30
21807;DHT22;11065;50.786;7.840;2022-09-16T18:26:10;15.00;48.30
21807;DHT22;11065;50.786;7.840;2022-09-16T18:28:39;15.00;48.50
21807;DHT22;11065;50.786;7.840;2022-09-16T18:31:26;14.90;48.60
21807;DHT22;11065;50.786;7.840;2022-09-16T18:33:53;14.80;48.60
21807;DHT22;11065;50.786;7.840;2022-09-16T18:36:22;14.80;48.70
21807;DHT22;11065;50.786;7.840;2022-09-16T18:38:55;14.70;48.80
21807;DHT22;11065;50.786;7.840;2022-09-16T18:41:25;14.70;49.00
21807;DHT22;11065;50.786;7.840;2022-09-16T18:43:55;14.70;49.10
21807;DHT22;11065;50.786;7.840;2022-09-16T18:46:24;14.60;49.00
21807;DHT22;11065;50.786;7.840;2022-09-16T18:48:52;14.60;49.00
21807;DHT22;11065;50.786;7.840;2022-09-16T18:51:28;14.50;49.10
21807;DHT22;11065;50.786;7.840;2022-09-16T18:53:57;14.50;49.30
21807;DHT22;11065;50.786;7.840;2022-09-16T18:56:27;14.40;49.30
21807;DHT22;11065;50.786;7.840;2022-09-16T18:59:12;14.40;49.30
21807;DHT22;11065;50.786;7.840;2022-09-16T19:01:54;14.40;49.50